Current Weather

Phetchabun

Phetchabun, Thailand (VTPB)

Report from: Wednesday, April 24, 2024 11:00 AM UTC
Current time: Wednesday, April 24, 2024 6:41 PM UTC

Nearby weather – Weather history – Daily summaries
Weather forecast

Temperature38.0°C (100.4°F)
Heat index40.6°C (105.1°F)
Dew point19.0°C (66.2°F)
Winds 8 kts (4.1 m/s, 9.2 mph) Vrb
Winds variableWinds variable from Southwest (220°) to West (280°)
Visibility5 mi. (8 km)
Altimeter29.59 in.Hg (1002 mB)
Relative humidity33 %
Density altitude3,269 ft. (996 m)
Remarks No significant changes expected in the next two hours
Flight conditions Marginal Visual Meteorological Conditions
Raw dataVTPB 241100Z 24008KT 220V280 8000 NSC 38/19 Q1002 NOSIG
An error has occurred. This application may no longer respond until reloaded. Reload 🗙